createdAt,value
2023-10-21T08:34:45.807Z,32.27
2023-10-21T08:36:24.812Z,32.17
2023-10-21T08:38:00.993Z,31.72
2023-10-21T08:39:37.797Z,31.72
2023-10-21T08:41:17.688Z,31.82
2023-10-21T08:43:01.992Z,32.17
2023-10-21T08:44:39.710Z,32.29
2023-10-21T08:46:20.371Z,32.16
2023-10-21T08:48:00.148Z,32.33
2023-10-21T08:49:39.119Z,32.84
2023-10-21T08:51:28.506Z,32.65
2023-10-21T08:53:23.841Z,32.09
2023-10-21T08:55:00.267Z,31.96
2023-10-21T08:56:37.881Z,32.64
2023-10-21T08:58:14.484Z,32.81
2023-10-21T08:59:54.020Z,32.70
2023-10-21T09:01:39.368Z,33.05
2023-10-21T09:03:17.937Z,33.32
2023-10-21T09:05:43.148Z,33.29
2023-10-21T09:07:55.861Z,33.32
2023-10-21T09:36:51.398Z,33.49
2023-10-21T09:39:50.015Z,34.04
2023-10-21T09:42:12.759Z,34.55
2023-10-21T09:44:43.507Z,34.69
2023-10-21T09:50:15.589Z,34.82
2023-10-21T09:57:05.996Z,35.38
2023-10-21T11:04:34.949Z,35.65
2023-10-21T11:06:11.335Z,35.07
2023-10-21T11:07:49.068Z,35.44
2023-10-21T11:09:32.978Z,35.21
2023-10-21T11:11:13.409Z,35.95
2023-10-21T11:12:51.494Z,34.37
2023-10-21T11:14:29.487Z,34.46
2023-10-21T11:16:10.309Z,35.24
2023-10-21T11:17:52.933Z,34.98
2023-10-21T11:19:29.364Z,34.57
2023-10-21T11:21:07.306Z,35.93
2023-10-21T11:22:46.191Z,35.03
2023-10-21T11:24:24.476Z,35.81
2023-10-21T11:26:02.825Z,35.61
2023-10-21T11:27:43.195Z,35.40
2023-10-21T11:29:35.808Z,36.44
2023-10-21T11:31:39.406Z,35.99
2023-10-21T11:33:39.149Z,35.04
2023-10-21T11:35:56.823Z,35.64
2023-10-21T11:37:56.930Z,36.47
2023-10-21T11:39:52.815Z,36.11
2023-10-21T11:41:29.707Z,35.62
2023-10-21T11:43:16.456Z,36.08
2023-10-21T11:45:05.751Z,36.13
2023-10-21T11:46:44.993Z,35.85
2023-10-21T11:48:22.343Z,35.72
2023-10-21T11:50:00.676Z,36.01
2023-10-21T11:51:37.930Z,36.33
2023-10-21T11:53:15.934Z,35.99
2023-10-21T11:55:26.198Z,35.34
2023-10-21T11:57:05.894Z,36.00
2023-10-21T11:59:02.209Z,35.76
2023-10-21T12:00:56.626Z,36.28
2023-10-21T12:02:51.147Z,36.52
2023-10-21T12:04:36.510Z,36.65
2023-10-21T12:06:22.478Z,35.92
2023-10-21T12:08:17.016Z,36.33
2023-10-21T12:10:11.332Z,34.97
2023-10-21T12:12:06.552Z,35.54
2023-10-21T12:13:43.810Z,35.22
2023-10-21T12:15:24.410Z,35.34
2023-10-21T12:17:11.947Z,35.28
2023-10-21T12:19:10.001Z,35.54
2023-10-21T12:20:59.014Z,36.41
2023-10-21T12:22:55.160Z,36.69
2023-10-21T12:24:47.388Z,36.55
2023-10-21T12:26:24.414Z,36.29
2023-10-21T12:28:35.730Z,36.84
2023-10-21T12:30:31.517Z,36.70
2023-10-21T12:32:20.308Z,37.24
2023-10-21T12:34:15.450Z,36.29
2023-10-21T12:36:25.358Z,35.87
2023-10-21T12:38:13.917Z,36.21
2023-10-21T12:39:51.544Z,36.44
2023-10-21T12:41:29.544Z,37.39
2023-10-21T12:43:18.633Z,36.64
2023-10-21T12:44:59.926Z,36.51
2023-10-21T12:46:40.726Z,36.32
2023-10-21T12:48:20.420Z,35.16
2023-10-21T12:49:59.587Z,35.88
2023-10-21T12:51:40.951Z,36.03
2023-10-21T12:53:17.229Z,36.12
2023-10-21T12:54:54.550Z,37.01
2023-10-21T12:56:32.104Z,36.69
2023-10-21T12:58:09.286Z,36.44
2023-10-21T12:59:46.592Z,36.59
2023-10-21T13:01:25.176Z,36.73
2023-10-21T13:03:01.960Z,35.84
2023-10-21T13:04:46.525Z,36.08
2023-10-21T13:06:22.791Z,36.08
2023-10-21T13:07:59.852Z,35.57
2023-10-21T13:09:36.654Z,36.34
2023-10-21T13:11:21.616Z,35.93
2023-10-21T13:12:57.887Z,36.68
2023-10-21T13:14:34.930Z,36.31
2023-10-21T13:40:00.192Z,36.38
2023-10-21T13:42:24.555Z,35.82
2023-10-21T13:44:34.165Z,36.15
2023-10-21T13:47:44.706Z,35.45
2023-10-21T13:49:22.297Z,35.43
2023-10-21T13:50:58.542Z,35.33
2023-10-21T13:52:35.116Z,35.63
2023-10-21T13:54:15.719Z,35.28
2023-10-21T13:55:55.650Z,35.53
2023-10-21T13:57:33.081Z,36.02
2023-10-21T13:59:17.602Z,35.86
2023-10-21T14:00:59.698Z,35.50
2023-10-21T14:02:37.132Z,35.78
2023-10-21T14:04:16.666Z,35.67
2023-10-21T14:06:02.274Z,35.74
2023-10-21T14:07:38.787Z,35.15
2023-10-21T14:09:34.173Z,35.53
2023-10-21T14:11:12.074Z,35.80
2023-10-21T14:12:51.637Z,36.09
2023-10-21T14:14:28.584Z,35.64
2023-10-21T14:16:09.616Z,35.74
2023-10-21T14:17:48.144Z,35.09
2023-10-21T14:19:26.536Z,35.12
2023-10-21T14:21:06.903Z,35.19
2023-10-21T14:22:46.139Z,35.25
2023-10-21T14:24:24.949Z,35.64
2023-10-21T14:26:06.219Z,34.99
2023-10-21T14:27:45.659Z,35.22
2023-10-21T14:29:23.713Z,34.92
2023-10-21T14:31:03.228Z,35.33
2023-10-21T14:32:44.053Z,35.18
2023-10-21T14:34:23.715Z,34.83
2023-10-21T14:36:09.109Z,35.08
2023-10-21T14:37:48.135Z,34.96
2023-10-21T14:39:25.581Z,35.28
2023-10-21T14:41:03.298Z,35.28
2023-10-21T14:42:46.769Z,35.50
2023-10-21T14:44:23.392Z,35.26
2023-10-21T14:46:17.888Z,35.23
2023-10-21T14:47:54.463Z,35.20
2023-10-21T14:49:50.710Z,35.10
2023-10-21T14:51:33.215Z,35.01
2023-10-21T14:53:28.287Z,35.05
2023-10-21T14:55:32.797Z,34.59
2023-10-21T14:57:17.652Z,34.64
2023-10-21T14:58:54.555Z,34.27
2023-10-21T15:00:31.142Z,34.49
2023-10-21T15:02:08.092Z,34.55
2023-10-21T15:03:45.105Z,34.62
2023-10-21T15:05:22.791Z,34.54
2023-10-21T15:07:00.939Z,34.86
2023-10-21T15:08:40.086Z,34.62
2023-10-21T15:10:20.608Z,34.44
2023-10-21T15:11:57.597Z,35.11
2023-10-21T15:13:34.003Z,35.32
2023-10-21T15:15:15.511Z,34.10
2023-10-21T15:16:52.786Z,34.50
2023-10-21T15:18:46.967Z,34.84
2023-10-21T15:20:27.599Z,34.22
2023-10-21T15:22:05.160Z,34.15
2023-10-21T15:23:42.205Z,34.36
2023-10-21T15:25:21.757Z,34.97
2023-10-21T15:27:19.359Z,34.79
2023-10-21T15:34:49.308Z,33.76
2023-10-21T15:40:26.411Z,34.23
2023-10-21T15:42:56.661Z,34.24
2023-10-21T15:44:33.447Z,34.22
2023-10-21T15:46:11.904Z,34.36
2023-10-21T15:47:48.293Z,34.21
2023-10-21T15:49:26.114Z,33.46
2023-10-21T15:51:16.433Z,33.99
2023-10-21T15:52:53.089Z,34.12
2023-10-21T15:54:36.206Z,34.14
2023-10-21T15:56:15.016Z,33.55
2023-10-21T15:57:53.734Z,33.72
2023-10-21T15:59:30.720Z,33.72
2023-10-21T17:10:32.207Z,31.44
2023-10-21T17:12:09.080Z,31.52
2023-10-21T17:13:46.111Z,30.97
2023-10-21T17:15:23.524Z,31.09
2023-10-21T17:17:01.637Z,30.72
2023-10-21T17:18:39.641Z,30.87
2023-10-21T17:20:17.597Z,30.95
2023-10-21T17:22:03.414Z,30.71
2023-10-21T17:23:40.306Z,30.59
2023-10-21T17:25:16.678Z,30.61
2023-10-21T17:26:55.304Z,30.43
2023-10-21T17:28:32.299Z,30.40
2023-10-21T17:30:10.381Z,30.56
2023-10-21T17:31:46.800Z,30.49
2023-10-21T17:33:26.425Z,30.45
2023-10-21T17:35:07.702Z,30.24
2023-10-21T17:36:45.305Z,30.19
2023-10-21T17:38:24.323Z,30.23
2023-10-21T17:40:02.324Z,30.41
2023-10-21T17:41:43.073Z,30.49
2023-10-21T17:43:21.952Z,30.41
2023-10-21T17:44:58.627Z,30.28
2023-10-21T17:46:35.243Z,30.26
2023-10-21T17:48:11.959Z,29.47
2023-10-21T17:49:50.874Z,29.70
2023-10-21T17:51:28.326Z,29.93
2023-10-21T17:53:08.637Z,30.03
2023-10-21T17:54:48.840Z,29.87
2023-10-21T17:56:25.910Z,29.62
2023-10-21T17:58:05.173Z,29.99
2023-10-21T17:59:42.286Z,29.78
2023-10-21T18:01:18.661Z,29.79
2023-10-21T18:03:01.908Z,30.02
2023-10-21T18:04:40.053Z,29.60
2023-10-21T18:06:19.133Z,29.56
2023-10-21T18:07:58.230Z,29.42
2023-10-21T18:09:35.849Z,29.37
2023-10-21T18:11:15.461Z,29.59
2023-10-21T18:12:52.569Z,29.49
2023-10-21T18:14:30.265Z,29.12
2023-10-21T18:16:08.277Z,29.37
2023-10-21T18:17:45.124Z,29.27
2023-10-21T18:19:26.666Z,29.14
2023-10-21T18:21:03.580Z,28.92
2023-10-21T18:22:46.494Z,28.91
2023-10-21T18:24:23.702Z,28.88
2023-10-21T18:26:09.601Z,28.51
2023-10-21T18:27:46.702Z,28.67
2023-10-21T18:29:24.382Z,29.06
2023-10-21T18:31:01.218Z,29.33
2023-10-21T18:32:39.769Z,29.30
2023-10-21T18:34:21.981Z,28.88
2023-10-21T18:36:00.480Z,29.01
2023-10-21T18:37:37.102Z,28.76
2023-10-21T18:39:15.225Z,28.59
2023-10-21T18:40:54.460Z,28.84
2023-10-21T18:42:31.241Z,28.81
2023-10-21T18:44:08.368Z,28.96
2023-10-21T18:45:45.915Z,29.02
2023-10-21T18:47:25.942Z,28.80
2023-10-21T18:49:12.296Z,28.65
2023-10-21T18:50:58.301Z,28.91
2023-10-21T18:52:35.850Z,28.24
2023-10-21T18:54:16.138Z,28.71
2023-10-21T18:55:52.799Z,29.00
2023-10-21T18:59:20.529Z,28.58
2023-10-21T19:01:05.409Z,28.42
2023-10-21T19:02:42.286Z,28.25
2023-10-21T19:04:20.819Z,28.49
2023-10-21T19:05:58.291Z,28.58
2023-10-21T19:07:43.583Z,28.79
2023-10-21T19:09:27.595Z,28.22
2023-10-21T19:11:13.765Z,28.01
2023-10-21T19:12:52.990Z,27.73
2023-10-21T19:14:32.661Z,28.01
2023-10-21T19:16:09.638Z,27.99
2023-10-21T19:17:47.677Z,28.27
2023-10-21T19:19:26.612Z,28.46
2023-10-21T19:21:10.132Z,28.92
2023-10-21T21:01:43.870Z,30.34
2023-10-21T21:03:22.137Z,30.28
2023-10-21T21:05:12.420Z,30.48
2023-10-21T21:06:53.142Z,30.32
2023-10-21T21:08:31.360Z,30.43
2023-10-21T21:10:10.175Z,30.16
2023-10-21T21:11:50.895Z,29.91
2023-10-21T21:13:27.432Z,29.83
2023-10-21T21:15:11.608Z,30.22
2023-10-21T21:16:48.375Z,29.39
2023-10-21T21:18:25.554Z,29.92
2023-10-21T21:20:02.237Z,29.97
2023-10-21T21:21:39.198Z,29.18
2023-10-21T21:23:17.211Z,29.52
2023-10-21T21:24:53.542Z,29.18
2023-10-21T21:26:30.982Z,28.43
2023-10-21T21:28:07.383Z,28.26
2023-10-21T21:29:44.954Z,28.55
2023-10-21T21:31:24.218Z,29.21
2023-10-21T21:33:02.525Z,28.48
2023-10-21T21:34:41.899Z,28.71
2023-10-21T21:36:19.443Z,28.34
2023-10-21T21:37:57.750Z,27.99
2023-10-21T21:39:35.839Z,28.46
2023-10-21T21:41:23.871Z,28.57
2023-10-21T21:43:01.566Z,28.34
2023-10-21T21:44:38.480Z,28.49
2023-10-21T21:46:25.383Z,28.68
2023-10-21T21:48:01.747Z,28.76
2023-10-21T21:49:41.314Z,28.93
2023-10-21T21:51:20.871Z,28.64
2023-10-21T21:52:57.320Z,28.29
2023-10-21T21:54:36.969Z,28.35
2023-10-21T21:56:14.563Z,28.30
2023-10-21T21:57:51.269Z,28.37
2023-10-21T21:59:30.700Z,28.65
2023-10-21T22:01:08.309Z,28.91
2023-10-21T22:02:54.895Z,28.57
2023-10-21T22:04:36.608Z,28.43
2023-10-21T22:06:14.563Z,28.20
2023-10-21T22:07:50.898Z,28.33
2023-10-21T22:09:30.033Z,28.32
2023-10-21T22:11:07.409Z,27.96
2023-10-21T22:12:43.901Z,27.57
2023-10-21T22:14:23.088Z,28.14
2023-10-21T22:16:03.653Z,28.11
2023-10-21T22:17:41.116Z,28.22
2023-10-21T22:19:18.780Z,28.27
2023-10-21T22:20:56.355Z,27.86
2023-10-21T22:22:33.067Z,28.07
2023-10-21T22:24:10.433Z,28.03
2023-10-21T22:25:47.814Z,28.01
2023-10-21T22:27:30.170Z,27.83
2023-10-21T22:29:17.330Z,27.82
2023-10-21T22:31:02.274Z,27.82
2023-10-21T22:32:41.681Z,27.96
2023-10-21T22:34:19.595Z,27.92
2023-10-21T22:35:58.120Z,27.77
2023-10-21T22:37:35.246Z,27.80
2023-10-21T22:39:15.386Z,28.06
2023-10-21T22:40:55.803Z,27.35
2023-10-21T22:42:32.599Z,26.72
2023-10-21T22:44:08.924Z,26.79
2023-10-21T22:45:45.362Z,26.97
2023-10-21T22:47:21.748Z,27.81
2023-10-21T22:48:59.866Z,27.88
2023-10-21T22:50:39.446Z,27.93
2023-10-21T22:52:15.967Z,27.14
2023-10-21T22:53:52.711Z,26.99
2023-10-21T22:55:30.183Z,27.63
2023-10-21T22:57:08.231Z,27.98
2023-10-21T22:58:46.718Z,27.62
2023-10-21T23:00:23.998Z,27.14
2023-10-21T23:02:01.585Z,27.19
2023-10-21T23:03:38.095Z,27.33
2023-10-21T23:05:16.209Z,27.48
2023-10-21T23:07:02.687Z,27.51
2023-10-21T23:08:42.835Z,27.60
2023-10-21T23:10:26.074Z,27.25
2023-10-21T23:12:04.348Z,26.59
2023-10-21T23:13:41.529Z,27.04
2023-10-21T23:15:19.722Z,27.19
2023-10-21T23:16:56.120Z,27.20
2023-10-21T23:18:33.638Z,27.59
2023-10-21T23:20:11.216Z,27.29
2023-10-21T23:21:51.679Z,27.07
2023-10-21T23:23:27.986Z,26.89
2023-10-21T23:25:05.407Z,27.43
2023-10-21T23:26:46.042Z,27.56
2023-10-21T23:28:26.817Z,27.80
2023-10-21T23:30:03.527Z,27.34
2023-10-21T23:31:41.870Z,27.35
2023-10-21T23:33:18.841Z,27.48
2023-10-21T23:34:55.757Z,27.37
2023-10-21T23:36:33.391Z,27.54
2023-10-21T23:38:10.977Z,27.70
2023-10-21T23:39:47.169Z,27.13
2023-10-21T23:41:25.002Z,26.48
2023-10-21T23:43:01.256Z,26.99
2023-10-21T23:44:37.921Z,27.37
2023-10-21T23:46:14.369Z,27.29
2023-10-21T23:47:51.948Z,27.38
2023-10-21T23:49:28.761Z,27.51
2023-10-21T23:51:06.145Z,27.53
2023-10-21T23:52:45.330Z,27.64
2023-10-21T23:54:24.573Z,27.33
2023-10-21T23:56:00.792Z,27.17
2023-10-21T23:57:37.329Z,27.18
2023-10-21T23:59:13.514Z,27.39
